Time;durP1;ratioP1;P1;durP2;ratioP2;P2;SDS_P1;SDS_P2;PMS_P1;PMS_P2;Temp;Humidity;BMP_temperature;BMP_pressure;BME280_temperature;BME280_humidity;BME280_pressure;Samples;Min_cycle;Max_cycle;Signal;HPM_P1;HPM_P2
2022/08/14 00:02:03;;;;;;;;;;;;;;;;;;5103238;28;19974;-81
2022/08/14 00:04:32;;;;;;;;;;;;;;;;;;5109592;28;19924;-80
2022/08/14 00:06:58;;;;;;;;;;;;;;;;;;5111198;28;19924;-81
2022/08/14 00:09:24;;;;;;;;;;;;;;;;;;5121383;28;19971;-80
2022/08/14 00:11:51;;;;;;;;;;;;;;;;;;5101590;22;19925;-82
2022/08/14 00:14:17;;;;;;;;;;;;;;;;;;5079151;28;20023;-80
2022/08/14 00:16:44;;;;;;;;;;;;;;;;;;5081100;28;19963;-80
2022/08/14 00:19:10;;;;;;;;;;;;;;;;;;5079768;28;19968;-80
2022/08/14 00:21:38;;;;;;;;;;;;;;;;;;5079091;28;20490;-81
2022/08/14 00:24:05;;;;;;;;;;;;;;;;;;5066722;28;19930;-80
2022/08/14 00:26:31;;;;;;;;;;;;;;;;;;5078056;28;19931;-79
2022/08/14 00:28:58;;;;;;;;;;;;;;;;;;5075376;28;19995;-80
2022/08/14 00:31:24;;;;;;;;;;;;;;;;;;5075517;28;19974;-81
2022/08/14 00:33:51;;;;;;;;;;;;;;;;;;5075283;28;20006;-81
2022/08/14 00:36:17;;;;;;;;;;;;;;;;;;5073836;28;20342;-81
2022/08/14 00:38:45;;;;;;;;;;;;;;;;;;5074861;28;19924;-81
2022/08/14 00:41:11;;;;;;;;;;;;;;;;;;5073995;28;20401;-79
2022/08/14 00:43:38;;;;;;;;;;;;;;;;;;5075216;28;19925;-80
2022/08/14 00:49:08;;;;;;;;;;;;;;;;;;5077891;28;20287;-80
2022/08/14 00:51:38;;;;;;;;;;;;;;;;;;5081592;28;19924;-81
2022/08/14 00:54:06;;;;;;;;;;;;;;;;;;5081768;28;19959;-80
2022/08/14 00:56:33;;;;;;;;;;;;;;;;;;5083420;28;19935;-79
2022/08/14 00:58:59;;;;;;;;;;;;;;;;;;5086455;28;19963;-79
2022/08/14 01:01:26;;;;;;;;;;;;;;;;;;5077722;28;19932;-78
2022/08/14 01:03:52;;;;;;;;;;;;;;;;;;5056989;28;20299;-79
2022/08/14 01:06:20;;;;;;;;;;;;;;;;;;5056896;28;20314;-77
2022/08/14 01:08:46;;;;;;;;;;;;;;;;;;5067473;28;20015;-78
2022/08/14 01:11:14;;;;;;;;;;;;;;;;;;5077558;28;19955;-78
2022/08/14 01:13:41;;;;;;;;;;;;;;;;;;5078224;28;19960;-78
2022/08/14 01:16:10;;;;;;;;;;;;;;;;;;5078943;28;19930;-78
2022/08/14 01:21:25;;;;;;;;;;;;;;;;;;5080000;28;19931;-81
2022/08/14 01:23:52;;;;;;;;;;;;;;;;;;5080831;28;19924;-78
2022/08/14 01:26:22;;;;;;;;;;;;;;;;;;5081386;28;19924;-80
2022/08/14 01:28:50;;;;;;;;;;;;;;;;;;5081984;28;19931;-80
2022/08/14 01:31:17;;;;;;;;;;;;;;;;;;5082961;28;19925;-79
2022/08/14 01:33:46;;;;;;;;;;;;;;;;;;5069671;28;19950;-80
2022/08/14 01:36:14;;;;;;;;;;;;;;;;;;5062570;28;20415;-80
2022/08/14 01:38:42;;;;;;;;;;;;;;;;;;5062269;28;19925;-78
2022/08/14 01:41:10;;;;;;;;;;;;;;;;;;5062471;28;19931;-81
2022/08/14 01:43:43;;;;;;;;;;;;;;;;;;5063537;28;19924;-78
2022/08/14 01:46:10;;;;;;;;;;;;;;;;;;5062595;28;19924;-79
2022/08/14 01:48:37;;;;;;;;;;;;;;;;;;5070276;28;19951;-80
2022/08/14 01:51:04;;;;;;;;;;;;;;;;;;5065534;28;19967;-79
2022/08/14 01:53:30;;;;;;;;;;;;;;;;;;5066813;28;19932;-79
2022/08/14 01:55:59;;;;;;;;;;;;;;;;;;5065197;28;19924;-79
2022/08/14 01:58:28;;;;;;;;;;;;;;;;;;5065335;28;19931;-79
2022/08/14 02:00:55;;;;;;;;;;;;;;;;;;5071497;28;19935;-79
2022/08/14 02:03:22;;;;;;;;;;;;;;;;;;5084151;28;19924;-78
2022/08/14 02:05:49;;;;;;;;;;;;;;;;;;5083909;28;19986;-77
2022/08/14 02:08:15;;;;;;;;;;;;;;;;;;5083820;28;19924;-81
2022/08/14 02:10:42;;;;;;;;;;;;;;;;;;5080514;28;19939;-80
2022/08/14 02:13:10;;;;;;;;;;;;;;;;;;5082693;28;19930;-79
2022/08/14 02:15:39;;;;;;;;;;;;;;;;;;5083230;28;20019;-79
2022/08/14 02:18:06;;;;;;;;;;;;;;;;;;5070484;28;20389;-79
2022/08/14 02:20:33;;;;;;;;;;;;;;;;;;5062274;28;19925;-78
2022/08/14 02:23:00;;;;;;;;;;;;;;;;;;5062525;28;19960;-81
2022/08/14 02:25:26;;;;;;;;;;;;;;;;;;5062221;28;19968;-80
2022/08/14 02:27:55;;;;;;;;;;;;;;;;;;5062456;28;19955;-81
2022/08/14 02:30:23;;;;;;;;;;;;;;;;;;5061968;28;19983;-80
2022/08/14 02:32:49;;;;;;;;;;;;;;;;;;5062703;28;19932;-79
2022/08/14 02:35:17;;;;;;;;;;;;;;;;;;5062664;28;19947;-80
2022/08/14 02:37:44;;;;;;;;;;;;;;;;;;5062615;28;19924;-80
2022/08/14 02:40:11;;;;;;;;;;;;;;;;;;5061659;28;19967;-81
2022/08/14 02:42:38;;;;;;;;;;;;;;;;;;5069628;28;19963;-80
2022/08/14 02:45:05;;;;;;;;;;;;;;;;;;5082137;28;20147;-81
2022/08/14 02:47:32;;;;;;;;;;;;;;;;;;5080181;28;19951;-81
2022/08/14 02:49:59;;;;;;;;;;;;;;;;;;5060997;28;19929;-80
2022/08/14 02:52:26;;;;;;;;;;;;;;;;;;5061831;28;19925;-79
2022/08/14 02:54:52;;;;;;;;;;;;;;;;;;5081278;28;19928;-79
2022/08/14 02:57:20;;;;;;;;;;;;;;;;;;5082143;28;20008;-81
2022/08/14 02:59:48;;;;;;;;;;;;;;;;;;5082225;28;19928;-81
2022/08/14 03:02:15;;;;;;;;;;;;;;;;;;5063232;28;19929;-81
2022/08/14 03:04:43;;;;;;;;;;;;;;;;;;5061774;28;20383;-80
2022/08/14 03:07:09;;;;;;;;;;;;;;;;;;5062999;28;20375;-81
2022/08/14 03:09:36;;;;;;;;;;;;;;;;;;5082470;28;19925;-81
2022/08/14 03:12:03;;;;;;;;;;;;;;;;;;5083471;28;20312;-80
2022/08/14 03:14:34;;;;;;;;;;;;;;;;;;5084398;28;19931;-81
2022/08/14 03:17:00;;;;;;;;;;;;;;;;;;5081891;28;19925;-80
2022/08/14 03:19:27;;;;;;;;;;;;;;;;;;5080738;28;20463;-79
2022/08/14 03:21:54;;;;;;;;;;;;;;;;;;5080431;28;19932;-80
2022/08/14 03:24:21;;;;;;;;;;;;;;;;;;5081560;28;19928;-79
2022/08/14 03:26:48;;;;;;;;;;;;;;;;;;5081682;28;19931;-80
2022/08/14 03:29:18;;;;;;;;;;;;;;;;;;5080805;28;19937;-80
2022/08/14 03:31:45;;;;;;;;;;;;;;;;;;5080926;28;19960;-80
2022/08/14 03:34:11;;;;;;;;;;;;;;;;;;5063688;28;19925;-79
2022/08/14 03:36:39;;;;;;;;;;;;;;;;;;5060119;28;19924;-81
2022/08/14 03:39:08;;;;;;;;;;;;;;;;;;5062068;28;19924;-79
2022/08/14 03:41:35;;;;;;;;;;;;;;;;;;5060440;28;20383;-80
2022/08/14 03:44:02;;;;;;;;;;;;;;;;;;5062281;28;19925;-79
2022/08/14 03:46:29;;;;;;;;;;;;;;;;;;5060086;28;20019;-80
2022/08/14 03:48:56;;;;;;;;;;;;;;;;;;5060674;28;19979;-78
2022/08/14 03:51:27;;;;;;;;;;;;;;;;;;5060456;28;19925;-79
2022/08/14 03:53:54;;;;;;;;;;;;;;;;;;5060470;28;19924;-78
2022/08/14 03:56:24;;;;;;;;;;;;;;;;;;5054679;28;19963;-79
2022/08/14 03:58:52;;;;;;;;;;;;;;;;;;5054956;28;19925;-79
2022/08/14 04:01:21;;;;;;;;;;;;;;;;;;5063858;28;20394;-79
2022/08/14 04:03:47;;;;;;;;;;;;;;;;;;5073409;28;20436;-78
2022/08/14 04:06:15;;;;;;;;;;;;;;;;;;5074374;28;20007;-79
2022/08/14 04:08:42;;;;;;;;;;;;;;;;;;5075442;28;20383;-78
2022/08/14 04:11:09;;;;;;;;;;;;;;;;;;5073838;28;19975;-78
2022/08/14 04:13:37;;;;;;;;;;;;;;;;;;5075322;28;20322;-79
2022/08/14 04:16:04;;;;;;;;;;;;;;;;;;5075882;28;19928;-79
2022/08/14 04:18:31;;;;;;;;;;;;;;;;;;5083700;28;19921;-78
2022/08/14 04:20:58;;;;;;;;;;;;;;;;;;5084644;28;19924;-79
2022/08/14 04:23:24;;;;;;;;;;;;;;;;;;5082900;28;20133;-80
2022/08/14 04:25:52;;;;;;;;;;;;;;;;;;5083010;28;19931;-79
2022/08/14 04:28:19;;;;;;;;;;;;;;;;;;5082287;28;19956;-79
2022/08/14 04:30:47;;;;;;;;;;;;;;;;;;5082649;28;20381;-80
2022/08/14 04:33:15;;;;;;;;;;;;;;;;;;5085805;28;19954;-79
2022/08/14 04:35:41;;;;;;;;;;;;;;;;;;5082059;28;19924;-78
2022/08/14 04:43:37;;;;;;;;;;;;;;;;;;5078556;28;20021;-78
2022/08/14 04:46:05;;;;;;;;;;;;;;;;;;5077693;28;20020;-78
2022/08/14 04:48:31;;;;;;;;;;;;;;;;;;5069687;28;19984;-78
2022/08/14 04:50:57;;;;;;;;;;;;;;;;;;5056694;28;20395;-79
2022/08/14 04:53:25;;;;;;;;;;;;;;;;;;5057571;28;19964;-79
2022/08/14 04:55:52;;;;;;;;;;;;;;;;;;5056764;28;19925;-78
2022/08/14 04:58:20;;;;;;;;;;;;;;;;;;5067643;28;20007;-79
2022/08/14 05:00:49;;;;;;;;;;;;;;;;;;5077115;28;19925;-79
2022/08/14 05:03:19;;;;;;;;;;;;;;;;;;5077657;28;20414;-78
2022/08/14 05:05:46;;;;;;;;;;;;;;;;;;5077034;28;19924;-78
2022/08/14 05:08:12;;;;;;;;;;;;;;;;;;5077518;28;19931;-79
2022/08/14 05:10:40;;;;;;;;;;;;;;;;;;5077476;28;19932;-80
2022/08/14 05:13:07;;;;;;;;;;;;;;;;;;5080689;28;19924;-80
2022/08/14 05:15:34;;;;;;;;;;;;;;;;;;5059590;28;19925;-77
2022/08/14 05:18:01;;;;;;;;;;;;;;;;;;5055642;28;20280;-78
2022/08/14 05:20:29;;;;;;;;;;;;;;;;;;5054992;28;19987;-78
2022/08/14 05:22:57;;;;;;;;;;;;;;;;;;5058400;28;19972;-79
2022/08/14 05:25:24;;;;;;;;;;;;;;;;;;5058270;28;19925;-81
2022/08/14 05:27:50;;;;;;;;;;;;;;;;;;5057690;28;19928;-80
2022/08/14 05:30:18;;;;;;;;;;;;;;;;;;5057568;28;19966;-78
2022/08/14 05:32:45;;;;;;;;;;;;;;;;;;5057697;28;19924;-79
2022/08/14 05:35:12;;;;;;;;;;;;;;;;;;5057542;28;20007;-79
2022/08/14 05:37:40;;;;;;;;;;;;;;;;;;5057448;28;19972;-78
2022/08/14 05:40:09;;;;;;;;;;;;;;;;;;5055172;28;19929;-78
2022/08/14 05:42:35;;;;;;;;;;;;;;;;;;5055577;28;19925;-78
2022/08/14 05:45:03;;;;;;;;;;;;;;;;;;5055356;28;19964;-78
2022/08/14 05:47:30;;;;;;;;;;;;;;;;;;5055477;28;19931;-77
2022/08/14 05:49:56;;;;;;;;;;;;;;;;;;5055460;28;19931;-78
2022/08/14 05:52:23;;;;;;;;;;;;;;;;;;5057062;28;20008;-76
2022/08/14 05:54:51;;;;;;;;;;;;;;;;;;5055392;28;20284;-76
2022/08/14 05:57:17;;;;;;;;;;;;;;;;;;5058521;28;20047;-76
2022/08/14 05:59:44;;;;;;;;;;;;;;;;;;5084742;28;19968;-78
2022/08/14 06:02:10;;;;;;;;;;;;;;;;;;5087118;28;19925;-79
2022/08/14 06:04:36;;;;;;;;;;;;;;;;;;5083459;28;19963;-79
2022/08/14 06:07:03;;;;;;;;;;;;;;;;;;5072230;28;19968;-80
2022/08/14 06:09:29;;;;;;;;;;;;;;;;;;5059363;28;20019;-80
2022/08/14 06:11:57;;;;;;;;;;;;;;;;;;5068737;28;19952;-79
2022/08/14 06:14:23;;;;;;;;;;;;;;;;;;5078992;28;19936;-78
2022/08/14 06:16:50;;;;;;;;;;;;;;;;;;5080308;28;19956;-80
2022/08/14 06:19:17;;;;;;;;;;;;;;;;;;5084228;28;20623;-81
2022/08/14 06:21:43;;;;;;;;;;;;;;;;;;5084125;28;20299;-81
2022/08/14 06:24:09;;;;;;;;;;;;;;;;;;5082200;28;20271;-81
2022/08/14 06:26:36;;;;;;;;;;;;;;;;;;5077888;28;19939;-81
2022/08/14 06:29:04;;;;;;;;;;;;;;;;;;5078233;28;19960;-81
2022/08/14 06:31:30;;;;;;;;;;;;;;;;;;5077987;28;20442;-81
2022/08/14 06:33:57;;;;;;;;;;;;;;;;;;5078895;28;19996;-82
2022/08/14 06:36:23;;;;;;;;;;;;;;;;;;5075679;28;19925;-78
2022/08/14 06:38:51;;;;;;;;;;;;;;;;;;5067237;28;19971;-80
2022/08/14 06:41:18;;;;;;;;;;;;;;;;;;5063026;28;19932;-80
2022/08/14 06:43:44;;;;;;;;;;;;;;;;;;5077906;28;19979;-80
2022/08/14 06:46:12;;;;;;;;;;;;;;;;;;5077995;28;19925;-80
2022/08/14 06:48:39;;;;;;;;;;;;;;;;;;5077527;28;20186;-79
2022/08/14 06:51:05;;;;;;;;;;;;;;;;;;5079906;28;20306;-80
2022/08/14 06:53:32;;;;;;;;;;;;;;;;;;5074423;28;20359;-78
2022/08/14 06:55:58;;;;;;;;;;;;;;;;;;5074687;28;19924;-80
2022/08/14 06:58:25;;;;;;;;;;;;;;;;;;5076702;28;19924;-79
2022/08/14 07:06:21;;;;;;;;;;;;;;;;;;5062138;28;19932;-80
2022/08/14 07:08:47;;;;;;;;;;;;;;;;;;5062663;28;19929;-80
2022/08/14 07:11:14;;;;;;;;;;;;;;;;;;5058320;28;19931;-78
2022/08/14 07:13:40;;;;;;;;;;;;;;;;;;5056518;28;20015;-80
2022/08/14 07:16:07;;;;;;;;;;;;;;;;;;5061678;28;19971;-81
2022/08/14 07:18:34;;;;;;;;;;;;;;;;;;5071645;28;19925;-79
2022/08/14 07:21:04;;;;;;;;;;;;;;;;;;5077427;28;19945;-80
2022/08/14 07:23:31;;;;;;;;;;;;;;;;;;5075697;28;19924;-79
2022/08/14 07:25:58;;;;;;;;;;;;;;;;;;5079052;28;20387;-81
2022/08/14 07:28:25;;;;;;;;;;;;;;;;;;5079913;28;19947;-81
2022/08/14 07:30:55;;;;;;;;;;;;;;;;;;5082019;28;19924;-78
2022/08/14 07:33:21;;;;;;;;;;;;;;;;;;5075459;28;19924;-78
2022/08/14 07:35:48;;;;;;;;;;;;;;;;;;5081451;28;19928;-79
2022/08/14 07:38:19;;;;;;;;;;;;;;;;;;5076828;28;19975;-80
2022/08/14 07:40:45;;;;;;;;;;;;;;;;;;5062124;28;19925;-78
2022/08/14 07:43:12;;;;;;;;;;;;;;;;;;5073403;28;20378;-80
2022/08/14 07:45:39;;;;;;;;;;;;;;;;;;5079273;28;19928;-81
2022/08/14 07:48:05;;;;;;;;;;;;;;;;;;5061081;28;19925;-81
2022/08/14 07:50:33;;;;;;;;;;;;;;;;;;5057076;28;20492;-78
2022/08/14 07:53:00;;;;;;;;;;;;;;;;;;5066879;28;19925;-78
2022/08/14 07:55:28;;;;;;;;;;;;;;;;;;5086038;28;19925;-78
2022/08/14 07:57:55;;;;;;;;;;;;;;;;;;5085686;28;19921;-79
2022/08/14 08:00:22;;;;;;;;;;;;;;;;;;5085912;28;19946;-80
2022/08/14 08:02:50;;;;;;;;;;;;;;;;;;5066437;28;20375;-80
2022/08/14 08:05:20;;;;;;;;;;;;;;;;;;5059555;28;19924;-81
2022/08/14 08:07:47;;;;;;;;;;;;;;;;;;5068518;28;19924;-78
2022/08/14 08:10:35;;;;;;;;;;;;;;;;;;5084940;28;20023;-79
2022/08/14 08:13:04;;;;;;;;;;;;;;;;;;5080376;28;19924;-80
2022/08/14 08:15:32;;;;;;;;;;;;;;;;;;5082129;28;19975;-81
2022/08/14 08:18:03;;;;;;;;;;;;;;;;;;5083808;28;19924;-78
2022/08/14 08:20:31;;;;;;;;;;;;;;;;;;5084171;28;20032;-80
2022/08/14 08:22:58;;;;;;;;;;;;;;;;;;5082588;28;19987;-80
2022/08/14 08:25:25;;;;;;;;;;;;;;;;;;5081490;28;19925;-80
2022/08/14 08:27:59;;;;;;;;;;;;;;;;;;5081938;28;19924;-80
2022/08/14 08:30:27;;;;;;;;;;;;;;;;;;5082357;28;19978;-79
2022/08/14 08:32:54;;;;;;;;;;;;;;;;;;5083987;28;19924;-81
2022/08/14 08:35:22;;;;;;;;;;;;;;;;;;5079755;28;20353;-79
2022/08/14 08:37:49;;;;;;;;;;;;;;;;;;5078679;28;20287;-82
2022/08/14 08:40:22;;;;;;;;;;;;;;;;;;5081978;28;19924;-80
2022/08/14 08:42:49;;;;;;;;;;;;;;;;;;5081647;28;19925;-78
2022/08/14 08:45:17;;;;;;;;;;;;;;;;;;5080039;28;19978;-77
2022/08/14 08:47:46;;;;;;;;;;;;;;;;;;5081273;28;19979;-80
2022/08/14 08:50:19;;;;;;;;;;;;;;;;;;5080332;28;20011;-79
2022/08/14 08:52:53;;;;;;;;;;;;;;;;;;5078620;28;19967;-80
2022/08/14 08:55:26;;;;;;;;;;;;;;;;;;5083089;28;19924;-79
2022/08/14 08:57:54;;;;;;;;;;;;;;;;;;5065505;28;19925;-80
2022/08/14 09:00:20;;;;;;;;;;;;;;;;;;5061652;28;19925;-81
2022/08/14 09:02:56;;;;;;;;;;;;;;;;;;5079613;28;19968;-80
2022/08/14 09:05:23;;;;;;;;;;;;;;;;;;5081952;28;19946;-78
2022/08/14 09:07:49;;;;;;;;;;;;;;;;;;5078684;28;19924;-79
2022/08/14 09:10:16;;;;;;;;;;;;;;;;;;5078407;28;19946;-79
2022/08/14 09:12:42;;;;;;;;;;;;;;;;;;5076303;28;19925;-77
2022/08/14 09:15:09;;;;;;;;;;;;;;;;;;5078472;28;20405;-77
2022/08/14 09:17:36;;;;;;;;;;;;;;;;;;5079356;28;19925;-79
2022/08/14 09:20:04;;;;;;;;;;;;;;;;;;5081284;28;20410;-77
2022/08/14 09:22:31;;;;;;;;;;;;;;;;;;5069991;28;20407;-80
2022/08/14 09:24:58;;;;;;;;;;;;;;;;;;5058618;28;19931;-77
2022/08/14 09:27:24;;;;;;;;;;;;;;;;;;5060155;28;19925;-80
2022/08/14 09:29:51;;;;;;;;;;;;;;;;;;5061387;28;19929;-81
2022/08/14 09:32:22;;;;;;;;;;;;;;;;;;5061902;28;20420;-81
2022/08/14 09:34:55;;;;;;;;;;;;;;;;;;5059132;28;19935;-81
2022/08/14 09:37:34;;;;;;;;;;;;;;;;;;5077379;28;20118;-81
2022/08/14 09:40:04;;;;;;;;;;;;;;;;;;5082793;28;19928;-81
2022/08/14 09:42:43;;;;;;;;;;;;;;;;;;5078773;28;19924;-82
2022/08/14 09:45:12;;;;;;;;;;;;;;;;;;5081178;28;20019;-80
2022/08/14 09:47:47;;;;;;;;;;;;;;;;;;5080098;28;20098;-81
2022/08/14 09:50:17;;;;;;;;;;;;;;;;;;5078462;28;19924;-81
2022/08/14 09:52:51;;;;;;;;;;;;;;;;;;5088556;28;19920;-79
2022/08/14 09:55:18;;;;;;;;;;;;;;;;;;5097850;28;19925;-80
2022/08/14 09:57:45;;;;;;;;;;;;;;;;;;5090407;28;19981;-79
2022/08/14 10:00:13;;;;;;;;;;;;;;;;;;5081358;28;20002;-79
2022/08/14 10:02:50;;;;;;;;;;;;;;;;;;5059642;28;19931;-79
2022/08/14 10:05:27;;;;;;;;;;;;;;;;;;5065746;28;20007;-81
2022/08/14 10:07:55;;;;;;;;;;;;;;;;;;5076685;28;19932;-81
2022/08/14 10:10:28;;;;;;;;;;;;;;;;;;5075358;28;19971;-81
2022/08/14 10:12:55;;;;;;;;;;;;;;;;;;5076230;28;19924;-81
2022/08/14 10:15:23;;;;;;;;;;;;;;;;;;5075336;28;19928;-80
2022/08/14 10:17:51;;;;;;;;;;;;;;;;;;5072809;28;19924;-80
2022/08/14 10:20:21;;;;;;;;;;;;;;;;;;5072025;28;19935;-79
2022/08/14 10:22:48;;;;;;;;;;;;;;;;;;5077223;28;19935;-78
2022/08/14 10:25:16;;;;;;;;;;;;;;;;;;5075548;28;19979;-78
2022/08/14 10:27:45;;;;;;;;;;;;;;;;;;5077910;28;19925;-77
2022/08/14 10:30:15;;;;;;;;;;;;;;;;;;5075327;28;19932;-78
2022/08/14 10:32:45;;;;;;;;;;;;;;;;;;5076719;28;19928;-79
2022/08/14 10:35:12;;;;;;;;;;;;;;;;;;5076665;28;19968;-78
2022/08/14 10:37:39;;;;;;;;;;;;;;;;;;5076445;28;20011;-80
2022/08/14 10:40:06;;;;;;;;;;;;;;;;;;5076351;28;19956;-77
2022/08/14 10:42:38;;;;;;;;;;;;;;;;;;5075883;28;19967;-81
2022/08/14 10:45:19;;;;;;;;;;;;;;;;;;5076129;28;20377;-80
2022/08/14 10:47:48;;;;;;;;;;;;;;;;;;5076399;28;19959;-78
2022/08/14 10:50:15;;;;;;;;;;;;;;;;;;5074752;28;19924;-78
2022/08/14 10:52:42;;;;;;;;;;;;;;;;;;5078087;28;19929;-79
2022/08/14 10:55:12;;;;;;;;;;;;;;;;;;5079021;28;20438;-77
2022/08/14 10:57:48;;;;;;;;;;;;;;;;;;5077794;28;19924;-77
2022/08/14 11:00:16;;;;;;;;;;;;;;;;;;5075066;28;20276;-80
2022/08/14 11:02:42;;;;;;;;;;;;;;;;;;5058277;28;19948;-77
2022/08/14 11:05:12;;;;;;;;;;;;;;;;;;5062042;28;19925;-80
2022/08/14 11:07:40;;;;;;;;;;;;;;;;;;5059874;28;19925;-79
2022/08/14 11:10:08;;;;;;;;;;;;;;;;;;5056691;28;20296;-79
2022/08/14 11:12:46;;;;;;;;;;;;;;;;;;5055701;28;19924;-79
2022/08/14 11:15:15;;;;;;;;;;;;;;;;;;5058096;28;19924;-84
2022/08/14 11:17:42;;;;;;;;;;;;;;;;;;5058060;28;19936;-85
2022/08/14 11:20:11;;;;;;;;;;;;;;;;;;5057596;28;22134;-83
2022/08/14 11:22:39;;;;;;;;;;;;;;;;;;5060706;28;19924;-82
2022/08/14 11:25:08;;;;;;;;;;;;;;;;;;5069104;28;19925;-81
2022/08/14 11:27:34;;;;;;;;;;;;;;;;;;5077541;28;19972;-81
2022/08/14 11:30:02;;;;;;;;;;;;;;;;;;5077760;28;19971;-79
2022/08/14 11:32:30;;;;;;;;;;;;;;;;;;5075836;28;19929;-79
2022/08/14 11:34:57;;;;;;;;;;;;;;;;;;5075504;28;19931;-84
2022/08/14 11:37:24;;;;;;;;;;;;;;;;;;5079640;28;20348;-83
2022/08/14 11:39:50;;;;;;;;;;;;;;;;;;5079605;28;19964;-81
2022/08/14 11:42:20;;;;;;;;;;;;;;;;;;5079856;28;20375;-82
2022/08/14 11:44:48;;;;;;;;;;;;;;;;;;5075411;28;19925;-80
2022/08/14 11:47:18;;;;;;;;;;;;;;;;;;5057335;28;19924;-81
2022/08/14 11:49:47;;;;;;;;;;;;;;;;;;5064453;28;19932;-79
2022/08/14 11:52:14;;;;;;;;;;;;;;;;;;5081004;28;19928;-81
2022/08/14 11:54:40;;;;;;;;;;;;;;;;;;5067345;28;19944;-85
2022/08/14 11:57:13;;;;;;;;;;;;;;;;;;5083663;28;20299;-83
2022/08/14 11:59:41;;;;;;;;;;;;;;;;;;5081297;28;19924;-83
2022/08/14 12:02:13;;;;;;;;;;;;;;;;;;5062957;28;19925;-81
2022/08/14 12:04:50;;;;;;;;;;;;;;;;;;5077405;28;19925;-82
2022/08/14 12:07:16;;;;;;;;;;;;;;;;;;5081642;28;20023;-81
2022/08/14 12:09:43;;;;;;;;;;;;;;;;;;5077879;28;19984;-79
2022/08/14 12:12:14;;;;;;;;;;;;;;;;;;5071657;28;19978;-77
2022/08/14 12:14:47;;;;;;;;;;;;;;;;;;5057865;28;20020;-79
2022/08/14 12:17:14;;;;;;;;;;;;;;;;;;5075590;22;19943;-64
2022/08/14 12:19:45;;;;;;;;;;;;;;;;;;5080721;28;20043;-64
2022/08/14 12:22:12;;;;;;;;;;;;;;;;;;5083997;28;20011;-64
2022/08/14 12:24:42;;;;;;;;;;;;;;;;;;5075059;28;20300;-64
2022/08/14 12:27:08;;;;;;;;;;;;;;;;;;5078990;28;19924;-65
2022/08/14 12:29:43;;;;;;;;;;;;;;;;;;5074868;28;20295;-67
2022/08/14 12:32:09;;;;;;;;;;;;;;;;;;5084331;28;19931;-66
2022/08/14 12:34:36;;;;;;;;;;;;;;;;;;5080267;28;19935;-65
2022/08/14 12:37:07;;;;;;;;;;;;;;;;;;5088762;28;19947;-66
2022/08/14 12:39:36;;;;;;;;;;;;;;;;;;5079604;28;19924;-66
2022/08/14 12:42:06;;;;;;;;;;;;;;;;;;5071862;28;20297;-67
2022/08/14 12:44:34;;;;;;;;;;;;;;;;;;5089473;28;19967;-67
2022/08/14 12:47:08;;;;;;;;;;;;;;;;;;5092050;28;19939;-67
2022/08/14 12:49:35;;;;;;;;;;;;;;;;;;5085959;28;19924;-67
2022/08/14 12:52:02;;;;;;;;;;;;;;;;;;5088944;28;19931;-67
2022/08/14 12:54:29;;;;;;;;;;;;;;;;;;5081382;28;20430;-67
2022/08/14 12:57:04;;;;;;;;;;;;;;;;;;5090078;28;19924;-67
2022/08/14 12:59:32;;;;;;;;;;;;;;;;;;5076191;28;20010;-66
2022/08/14 13:02:00;;;;;;;;;;;;;;;;;;5087598;28;19924;-66
2022/08/14 13:04:28;;;;;;;;;;;;;;;;;;5091339;28;19931;-67
2022/08/14 13:06:54;;;;;;;;;;;;;;;;;;5080327;28;19924;-66
2022/08/14 13:09:26;;;;;;;;;;;;;;;;;;5082972;28;19931;-67
2022/08/14 13:11:53;;;;;;;;;;;;;;;;;;5085801;28;20400;-66
2022/08/14 13:14:24;;;;;;;;;;;;;;;;;;5095766;28;20316;-67
2022/08/14 13:16:52;;;;;;;;;;;;;;;;;;5095404;28;19944;-68
2022/08/14 13:19:19;;;;;;;;;;;;;;;;;;5089128;28;20003;-66
2022/08/14 13:21:46;;;;;;;;;;;;;;;;;;5083153;28;20396;-66
2022/08/14 13:24:14;;;;;;;;;;;;;;;;;;5075177;28;19947;-66
2022/08/14 13:26:43;;;;;;;;;;;;;;;;;;5074849;28;19975;-67
2022/08/14 13:29:11;;;;;;;;;;;;;;;;;;5074516;28;19924;-66
2022/08/14 13:31:43;;;;;;;;;;;;;;;;;;5074798;28;19924;-66
2022/08/14 13:34:12;;;;;;;;;;;;;;;;;;5074864;28;19932;-67
2022/08/14 13:36:38;;;;;;;;;;;;;;;;;;5074819;28;19925;-66
2022/08/14 13:39:05;;;;;;;;;;;;;;;;;;5074635;28;19924;-70
2022/08/14 13:41:32;;;;;;;;;;;;;;;;;;5074818;28;19925;-68
2022/08/14 13:43:59;;;;;;;;;;;;;;;;;;5091256;28;19948;-65
2022/08/14 13:46:26;;;;;;;;;;;;;;;;;;5074934;28;19932;-66
2022/08/14 13:48:55;;;;;;;;;;;;;;;;;;5074403;28;20400;-66
2022/08/14 13:51:24;;;;;;;;;;;;;;;;;;5074547;28;20404;-66
2022/08/14 13:53:51;;;;;;;;;;;;;;;;;;5074371;28;19978;-65
2022/08/14 13:56:18;;;;;;;;;;;;;;;;;;5074469;28;20412;-66
2022/08/14 13:58:46;;;;;;;;;;;;;;;;;;5074302;28;19924;-67
2022/08/14 14:01:14;;;;;;;;;;;;;;;;;;5073855;28;19924;-66
2022/08/14 14:03:43;;;;;;;;;;;;;;;;;;5073348;28;20370;-66
2022/08/14 14:06:13;;;;;;;;;;;;;;;;;;5074196;28;19925;-66
2022/08/14 14:08:45;;;;;;;;;;;;;;;;;;5082765;28;19978;-66
2022/08/14 14:11:13;;;;;;;;;;;;;;;;;;5080926;28;20027;-66
2022/08/14 14:13:39;;;;;;;;;;;;;;;;;;5073716;28;20019;-67
2022/08/14 14:16:07;;;;;;;;;;;;;;;;;;5073615;28;19924;-67
2022/08/14 14:18:34;;;;;;;;;;;;;;;;;;5073833;28;19979;-67
2022/08/14 14:21:01;;;;;;;;;;;;;;;;;;5073626;28;19931;-68
2022/08/14 14:23:30;;;;;;;;;;;;;;;;;;5074208;28;20381;-67
2022/08/14 14:25:56;;;;;;;;;;;;;;;;;;5073742;28;19971;-66
2022/08/14 14:28:26;;;;;;;;;;;;;;;;;;5073693;28;19925;-67
2022/08/14 14:30:53;;;;;;;;;;;;;;;;;;5073546;28;19924;-65
2022/08/14 14:33:20;;;;;;;;;;;;;;;;;;5073827;28;20069;-66
2022/08/14 14:35:47;;;;;;;;;;;;;;;;;;5073647;28;19924;-67
2022/08/14 14:38:15;;;;;;;;;;;;;;;;;;5073755;28;20343;-66
2022/08/14 14:40:45;;;;;;;;;;;;;;;;;;5073560;28;19932;-66
2022/08/14 14:43:12;;;;;;;;;;;;;;;;;;5073604;28;20397;-66
2022/08/14 14:45:39;;;;;;;;;;;;;;;;;;5073697;28;19928;-66
2022/08/14 14:48:07;;;;;;;;;;;;;;;;;;5073524;28;20300;-67
2022/08/14 14:50:37;;;;;;;;;;;;;;;;;;5073385;28;19931;-67
2022/08/14 14:53:03;;;;;;;;;;;;;;;;;;5073524;28;20360;-65
2022/08/14 14:55:30;;;;;;;;;;;;;;;;;;5073396;28;20385;-67
2022/08/14 14:57:59;;;;;;;;;;;;;;;;;;5073289;28;19932;-66
2022/08/14 15:00:25;;;;;;;;;;;;;;;;;;5072979;28;19971;-66
2022/08/14 15:02:53;;;;;;;;;;;;;;;;;;5073054;28;19928;-66
2022/08/14 15:05:21;;;;;;;;;;;;;;;;;;5072912;28;19924;-67
2022/08/14 15:07:49;;;;;;;;;;;;;;;;;;5073021;28;19932;-67
2022/08/14 15:10:19;;;;;;;;;;;;;;;;;;5073264;28;19983;-66
2022/08/14 15:12:46;;;;;;;;;;;;;;;;;;5072866;28;19924;-66
2022/08/14 15:15:14;;;;;;;;;;;;;;;;;;5072825;28;20452;-67
2022/08/14 15:17:41;;;;;;;;;;;;;;;;;;5072789;28;20037;-67
2022/08/14 15:20:09;;;;;;;;;;;;;;;;;;5072866;28;19928;-68
2022/08/14 15:22:38;;;;;;;;;;;;;;;;;;5072674;28;19932;-66
2022/08/14 15:25:05;;;;;;;;;;;;;;;;;;5072837;28;19924;-67
2022/08/14 15:27:33;;;;;;;;;;;;;;;;;;5073103;28;20305;-66
2022/08/14 15:30:00;;;;;;;;;;;;;;;;;;5072543;28;19970;-66
2022/08/14 15:32:28;;;;;;;;;;;;;;;;;;5072793;28;19924;-65
2022/08/14 15:34:54;;;;;;;;;;;;;;;;;;5072719;28;19925;-67
2022/08/14 15:37:22;;;;;;;;;;;;;;;;;;5072511;28;19928;-66
2022/08/14 15:39:49;;;;;;;;;;;;;;;;;;5072862;28;20446;-66
2022/08/14 15:42:15;;;;;;;;;;;;;;;;;;5072718;28;19924;-66
2022/08/14 15:44:42;;;;;;;;;;;;;;;;;;5072721;28;20396;-68
2022/08/14 15:47:09;;;;;;;;;;;;;;;;;;5072470;28;19925;-67
2022/08/14 15:49:37;;;;;;;;;;;;;;;;;;5072608;28;19924;-67
2022/08/14 15:52:05;;;;;;;;;;;;;;;;;;5072372;28;19925;-66
2022/08/14 15:54:32;;;;;;;;;;;;;;;;;;5072231;28;19928;-66
2022/08/14 15:57:03;;;;;;;;;;;;;;;;;;5072125;28;19951;-67
2022/08/14 16:01:18;;;;;;;;;;;;;;;;;;5072575;28;20397;-66
2022/08/14 16:02:15;;;;;;;;;;;;;;;;;;5072068;28;19929;-67
2022/08/14 16:04:43;;;;;;;;;;;;;;;;;;5072374;28;20019;-67
2022/08/14 16:07:10;;;;;;;;;;;;;;;;;;5072232;28;19924;-66
2022/08/14 16:09:37;;;;;;;;;;;;;;;;;;5072136;28;20343;-66
2022/08/14 16:12:04;;;;;;;;;;;;;;;;;;5072412;28;19932;-67
2022/08/14 16:14:33;;;;;;;;;;;;;;;;;;5071074;28;19925;-66
2022/08/14 16:17:00;;;;;;;;;;;;;;;;;;5071017;28;19989;-66
2022/08/14 16:19:29;;;;;;;;;;;;;;;;;;5069938;28;19925;-66
2022/08/14 16:22:00;;;;;;;;;;;;;;;;;;5070300;28;19998;-67
2022/08/14 16:24:27;;;;;;;;;;;;;;;;;;5070129;28;19925;-67
2022/08/14 16:26:54;;;;;;;;;;;;;;;;;;5071364;28;20019;-66
2022/08/14 16:29:21;;;;;;;;;;;;;;;;;;5074050;28;19929;-67
2022/08/14 16:31:49;;;;;;;;;;;;;;;;;;5073932;28;19932;-67
2022/08/14 16:34:16;;;;;;;;;;;;;;;;;;5073791;28;19925;-66
2022/08/14 16:36:44;;;;;;;;;;;;;;;;;;5074015;28;19946;-67
2022/08/14 16:39:12;;;;;;;;;;;;;;;;;;5082101;28;20365;-67
2022/08/14 16:41:39;;;;;;;;;;;;;;;;;;5093947;28;19928;-66
2022/08/14 16:44:06;;;;;;;;;;;;;;;;;;5094386;28;19925;-65
2022/08/14 16:46:36;;;;;;;;;;;;;;;;;;5094103;28;19924;-67
2022/08/14 16:49:04;;;;;;;;;;;;;;;;;;5094240;28;20014;-67
2022/08/14 16:51:31;;;;;;;;;;;;;;;;;;5094066;28;19931;-66
2022/08/14 16:53:59;;;;;;;;;;;;;;;;;;5093055;28;20442;-67
2022/08/14 16:56:27;;;;;;;;;;;;;;;;;;5093921;28;20300;-67
2022/08/14 16:59:04;;;;;;;;;;;;;;;;;;5093610;28;19924;-67
2022/08/14 17:01:31;;;;;;;;;;;;;;;;;;5093547;28;19924;-67
2022/08/14 17:03:59;;;;;;;;;;;;;;;;;;5093447;28;20394;-66
2022/08/14 17:06:39;;;;;;;;;;;;;;;;;;5093549;28;19931;-67
2022/08/14 17:09:09;;;;;;;;;;;;;;;;;;5092813;28;20019;-66